createdAt,value
2023-04-13T00:00:22.451Z,86138.06
2023-04-13T00:02:49.731Z,86132.47
2023-04-13T00:05:17.026Z,86127.22
2023-04-13T00:07:44.239Z,86135.84
2023-04-13T00:10:11.495Z,86138.06
2023-04-13T00:12:39.653Z,86132.06
2023-04-13T00:15:08.061Z,86141.44
2023-04-13T00:17:35.981Z,86132.47
2023-04-13T00:20:03.216Z,86127.22
2023-04-13T00:22:30.319Z,86134.34
2023-04-13T00:24:57.534Z,86135.09
2023-04-13T00:27:24.800Z,86129.47
2023-04-13T00:29:52.108Z,86127.22
2023-04-13T00:32:19.266Z,86120.50
2023-04-13T00:34:46.398Z,86118.25
2023-04-13T00:37:13.806Z,86115.25
2023-04-13T00:39:41.737Z,86111.56
2023-04-13T00:42:09.154Z,86109.34
2023-04-13T00:44:36.693Z,86111.91
2023-04-13T00:47:05.222Z,86114.19
2023-04-13T00:49:36.178Z,86107.06
2023-04-13T00:52:03.831Z,86109.69
2023-04-13T00:54:32.772Z,86111.56
2023-04-13T00:57:01.155Z,86099.19
2023-04-13T00:59:29.512Z,86102.59
2023-04-13T01:01:56.814Z,86099.59
2023-04-13T01:04:26.022Z,86088.75
2023-04-13T01:07:21.107Z,86097.03
2023-04-13T01:10:28.365Z,86100.81
2023-04-13T01:13:10.537Z,86093.69
2023-04-13T01:15:44.379Z,86093.34
2023-04-13T01:18:14.405Z,86088.50
2023-04-13T01:20:46.217Z,86086.28
2023-04-13T01:23:56.550Z,86081.00
2023-04-13T01:26:32.430Z,86072.38
2023-04-13T01:28:59.622Z,86063.03
2023-04-13T01:31:27.310Z,86062.69
2023-04-13T01:33:54.575Z,86074.31
2023-04-13T01:36:22.406Z,86061.19
2023-04-13T01:38:49.709Z,86050.34
2023-04-13T01:41:16.862Z,86054.84
2023-04-13T01:43:44.778Z,86054.13
2023-04-13T01:46:13.933Z,86045.13
2023-04-13T01:48:51.954Z,86043.97
2023-04-13T01:51:24.861Z,86054.09
2023-04-13T01:54:19.381Z,86042.88
2023-04-13T01:56:48.006Z,86054.13
2023-04-13T01:59:16.148Z,86053.00
2023-04-13T02:01:43.634Z,86053.78
2023-04-13T02:04:11.204Z,86050.88
2023-04-13T02:06:38.615Z,86054.22
2023-04-13T02:09:05.823Z,86052.31
2023-04-13T02:11:34.574Z,86052.69
2023-04-13T02:14:01.742Z,86040.69
2023-04-13T02:16:28.957Z,86033.22
2023-04-13T02:18:56.161Z,86031.72
2023-04-13T02:21:23.671Z,86025.78
2023-04-13T02:23:50.878Z,86030.31
2023-04-13T02:26:18.254Z,86015.69
2023-04-13T02:28:45.556Z,86016.84
2023-04-13T02:31:12.878Z,86022.09
2023-04-13T02:33:40.011Z,86006.72
2023-04-13T02:36:08.148Z,86008.63
2023-04-13T02:38:35.508Z,85996.63
2023-04-13T02:41:03.054Z,85991.78
2023-04-13T02:43:30.420Z,85992.13
2023-04-13T02:45:58.058Z,85980.19
2023-04-13T02:48:25.350Z,85986.91
2023-04-13T02:50:54.213Z,85984.28
2023-04-13T02:53:21.576Z,85970.41
2023-04-13T02:55:48.960Z,85961.41
2023-04-13T02:58:16.117Z,85959.19
2023-04-13T03:00:43.236Z,85961.44
2023-04-13T03:03:10.392Z,85950.22
2023-04-13T03:05:38.150Z,85946.47
2023-04-13T03:08:05.448Z,85941.97
2023-04-13T03:10:32.644Z,85941.97
2023-04-13T03:12:59.922Z,85940.84
2023-04-13T03:15:27.564Z,85932.63
2023-04-13T03:17:54.942Z,85919.88
2023-04-13T03:20:22.386Z,85924.78
2023-04-13T03:22:49.692Z,85916.97
2023-04-13T03:25:17.042Z,85917.66
2023-04-13T03:27:44.166Z,85918.78
2023-04-13T03:30:11.937Z,85918.78
2023-04-13T03:32:39.241Z,85917.31
2023-04-13T03:35:06.891Z,85918.06
2023-04-13T03:37:34.233Z,85912.41
2023-04-13T03:40:01.728Z,85914.69
2023-04-13T03:42:30.453Z,85905.38
2023-04-13T03:44:58.634Z,85919.28
2023-04-13T03:47:26.000Z,85917.81
2023-04-13T03:49:53.425Z,85913.75
2023-04-13T03:52:20.654Z,85915.19
2023-04-13T03:54:47.879Z,85921.25
2023-04-13T03:57:15.182Z,85931.38
2023-04-13T03:59:42.364Z,85936.59
2023-04-13T04:02:09.552Z,85937.00
2023-04-13T04:04:36.791Z,85946.72
2023-04-13T04:07:03.993Z,85944.53
2023-04-13T04:09:31.719Z,85946.00
2023-04-13T04:11:59.230Z,85958.00
2023-04-13T04:14:26.378Z,85957.28
2023-04-13T04:16:53.626Z,85966.25
2023-04-13T04:19:20.859Z,85982.75
2023-04-13T04:21:48.505Z,85992.84
2023-04-13T04:24:17.475Z,85995.44
2023-04-13T04:26:45.377Z,85984.22
2023-04-13T04:29:12.588Z,85972.63
2023-04-13T04:31:41.261Z,85981.97
2023-04-13T04:34:08.447Z,85984.28
2023-04-13T04:36:35.626Z,85983.56
2023-04-13T04:39:03.059Z,85992.56
2023-04-13T04:41:30.340Z,85992.59
2023-04-13T04:43:57.717Z,85995.22
2023-04-13T04:46:25.517Z,85987.75
2023-04-13T04:48:54.433Z,85991.91
2023-04-13T04:51:21.769Z,85997.19
2023-04-13T04:53:49.267Z,86002.44
2023-04-13T04:56:16.492Z,85995.34
2023-04-13T04:58:43.686Z,86003.59
2023-04-13T05:01:10.892Z,86008.09
2023-04-13T05:03:38.323Z,86008.88
2023-04-13T05:06:05.919Z,86005.56
2023-04-13T05:08:33.275Z,86005.22
2023-04-13T05:11:00.459Z,86003.72
2023-04-13T05:13:27.685Z,86012.34
2023-04-13T05:15:54.963Z,86009.00
2023-04-13T05:18:22.202Z,86009.38
2023-04-13T05:20:49.273Z,86007.16
2023-04-13T05:23:16.454Z,86006.41
2023-04-13T05:25:43.619Z,86012.78
2023-04-13T05:28:10.748Z,86012.03
2023-04-13T05:30:37.887Z,86009.81
2023-04-13T05:33:05.326Z,86004.22
2023-04-13T05:35:32.571Z,86005.72
2023-04-13T05:37:59.795Z,86007.22
2023-04-13T05:40:27.069Z,86006.47
2023-04-13T05:42:54.257Z,86016.94
2023-04-13T05:45:21.765Z,86018.09
2023-04-13T05:47:49.153Z,86019.56
2023-04-13T05:50:16.347Z,86024.78
2023-04-13T05:52:43.567Z,86033.41
2023-04-13T05:55:11.193Z,86036.38
2023-04-13T05:57:38.393Z,86036.75
2023-04-13T06:00:06.648Z,86040.13
2023-04-13T06:02:33.888Z,86040.84
2023-04-13T06:05:01.338Z,86034.53
2023-04-13T06:07:28.774Z,86035.59
2023-04-13T06:09:55.960Z,86031.13
2023-04-13T06:12:23.109Z,86032.97
2023-04-13T06:14:50.644Z,86046.03
2023-04-13T06:17:17.840Z,86038.91
2023-04-13T06:19:44.996Z,86044.88
2023-04-13T06:22:12.165Z,86050.44
2023-04-13T06:24:39.242Z,86048.94
2023-04-13T06:27:06.426Z,86059.41
2023-04-13T06:29:33.681Z,86060.50
2023-04-13T06:32:00.798Z,86062.78
2023-04-13T06:34:27.974Z,86068.38
2023-04-13T06:36:55.107Z,86076.19
2023-04-13T06:39:22.223Z,86082.13
2023-04-13T06:41:49.501Z,86070.94
2023-04-13T06:44:18.396Z,86073.56
2023-04-13T06:46:45.579Z,86069.50
2023-04-13T06:49:13.059Z,86084.78
2023-04-13T06:51:40.521Z,86092.25
2023-04-13T06:54:07.989Z,86095.19
2023-04-13T06:56:35.142Z,86087.75
2023-04-13T06:59:02.919Z,86085.50
2023-04-13T07:01:30.714Z,86076.47
2023-04-13T07:03:58.001Z,86081.31
2023-04-13T07:06:25.419Z,86082.81
2023-04-13T07:08:52.573Z,86077.28
2023-04-13T07:11:20.197Z,86075.75
2023-04-13T07:13:47.500Z,86089.59
2023-04-13T07:16:14.699Z,86090.34
2023-04-13T07:18:41.898Z,86085.91
2023-04-13T11:26:16.893Z,86060.25
2023-04-13T11:28:47.914Z,86067.72
2023-04-13T11:31:15.087Z,86055.78
2023-04-13T11:33:42.300Z,86060.66
2023-04-13T11:36:10.165Z,86059.91
2023-04-13T11:38:40.495Z,86053.19
2023-04-13T11:41:16.408Z,86055.41
2023-04-13T11:43:45.446Z,86053.53
2023-04-13T11:46:12.977Z,86056.16
2023-04-13T11:48:41.146Z,86047.94
2023-04-13T11:51:09.414Z,86046.84
2023-04-13T11:53:36.702Z,86046.09
2023-04-13T11:56:04.497Z,86040.84
2023-04-13T11:58:32.197Z,86038.63
2023-04-13T12:01:13.744Z,86037.13
2023-04-13T12:03:56.844Z,86035.25
2023-04-13T12:06:31.474Z,86034.88
2023-04-13T12:09:10.124Z,86034.91
2023-04-13T12:11:44.275Z,86034.13
2023-04-13T12:19:27.512Z,86037.13
2023-04-13T12:21:55.944Z,86043.09
2023-04-13T12:24:35.102Z,86050.53
2023-04-13T12:29:38.639Z,86047.94
2023-04-13T12:32:13.838Z,86050.16
2023-04-13T12:34:42.086Z,86058.00
2023-04-13T12:37:11.076Z,86058.75
2023-04-13T12:39:38.436Z,86059.84
2023-04-13T12:42:05.838Z,86064.28
2023-04-13T12:44:34.298Z,86083.97
2023-04-13T12:47:02.068Z,86082.09
2023-04-13T12:49:29.806Z,86085.44
2023-04-13T12:51:57.261Z,86090.66
2023-04-13T12:54:24.479Z,86108.59
2023-04-13T12:56:51.631Z,86110.06
2023-04-13T12:59:19.067Z,86116.00
2023-04-13T13:01:46.387Z,86111.16
2023-04-13T13:04:13.807Z,86098.81
2023-04-13T13:06:41.056Z,86099.19
2023-04-13T13:09:08.361Z,86094.31
2023-04-13T13:11:35.764Z,86085.69
2023-04-13T13:14:03.134Z,86089.84
2023-04-13T13:16:31.308Z,86083.16
2023-04-13T13:18:58.696Z,86096.22
2023-04-13T13:21:26.342Z,86095.13
2023-04-13T13:23:53.817Z,86093.94
2023-04-13T13:26:24.484Z,86087.66
2023-04-13T13:28:53.746Z,86083.94
2023-04-13T13:31:21.159Z,86081.38
2023-04-13T13:33:48.599Z,86075.06
2023-04-13T13:36:16.122Z,86083.69
2023-04-13T13:38:43.880Z,86070.63
2023-04-13T13:41:11.239Z,86064.28
2023-04-13T13:43:39.505Z,86048.66
2023-04-13T13:46:07.084Z,86047.16
2023-04-13T13:48:34.401Z,86057.94
2023-04-13T13:51:01.626Z,86054.22
2023-04-13T13:53:28.931Z,86052.31
2023-04-13T13:55:56.208Z,86056.44
2023-04-13T13:58:23.514Z,86043.00
2023-04-13T14:00:50.749Z,86014.66
2023-04-13T14:03:18.161Z,86023.63
2023-04-13T14:05:45.510Z,86039.28
2023-04-13T14:08:12.671Z,86019.53
2023-04-13T14:10:40.236Z,86000.91
2023-04-13T14:13:07.564Z,86005.75
2023-04-13T14:15:34.864Z,86000.53
2023-04-13T14:18:10.442Z,86003.16
2023-04-13T14:20:39.613Z,86005.03
2023-04-13T14:23:07.867Z,85998.66
2023-04-13T14:25:35.280Z,85991.19
2023-04-13T14:28:02.753Z,85991.97
2023-04-13T14:30:30.084Z,85996.44
2023-04-13T14:32:57.321Z,85994.56
2023-04-13T14:35:24.619Z,85995.69
2023-04-13T14:37:52.076Z,86002.78
2023-04-13T14:40:19.673Z,85997.16
2023-04-13T14:42:46.942Z,85992.69
2023-04-13T14:45:14.246Z,85999.44
2023-04-13T14:47:41.505Z,85993.81
2023-04-13T14:50:09.319Z,85998.66
2023-04-13T14:52:36.755Z,86007.25
2023-04-13T14:55:04.890Z,86004.97
2023-04-13T14:57:32.237Z,86009.81
2023-04-13T14:59:59.458Z,86018.75
2023-04-13T15:02:28.352Z,86018.41
2023-04-13T15:04:56.068Z,86029.56
2023-04-13T15:07:23.481Z,86022.88
2023-04-13T15:09:50.761Z,86022.88
2023-04-13T15:12:18.040Z,86013.56
2023-04-13T15:14:45.993Z,86021.03
2023-04-13T15:19:41.010Z,86021.00
2023-04-13T15:22:09.122Z,86013.56
2023-04-13T15:24:36.300Z,86016.53
2023-04-13T15:27:03.563Z,86020.63
2023-04-13T15:29:31.009Z,86014.28
2023-04-13T15:31:58.941Z,86020.63
2023-04-13T15:34:26.216Z,86023.94
2023-04-13T15:36:53.948Z,86022.47
2023-04-13T15:39:21.254Z,86028.06
2023-04-13T15:41:49.021Z,86030.28
2023-04-13T15:44:16.523Z,86025.06
2023-04-13T15:46:44.029Z,86023.97
2023-04-13T15:49:11.276Z,86026.94
2023-04-13T15:51:38.515Z,86025.78
2023-04-13T15:54:05.994Z,86036.22
2023-04-13T15:56:33.248Z,86023.94
2023-04-13T15:59:00.745Z,86033.22
2023-04-13T16:01:28.303Z,86028.78
2023-04-13T16:03:55.825Z,86033.22
2023-04-13T16:06:23.271Z,86035.38
2023-04-13T16:08:50.445Z,86035.78
2023-04-13T16:11:17.711Z,86038.00
2023-04-13T16:13:48.988Z,86032.78
2023-04-13T16:16:17.325Z,86038.34
2023-04-13T16:18:44.584Z,86036.09
2023-04-13T16:21:11.782Z,86038.69
2023-04-13T16:23:39.046Z,86039.09
2023-04-13T16:26:09.610Z,86033.84
2023-04-13T16:28:37.007Z,86036.44
2023-04-13T16:31:08.508Z,86043.84
2023-04-13T16:33:35.786Z,86046.47
2023-04-13T16:36:03.011Z,86051.63
2023-04-13T16:38:30.352Z,86049.81
2023-04-13T16:40:57.769Z,86046.47
2023-04-13T16:43:24.922Z,86045.69
2023-04-13T16:45:52.177Z,86042.00
2023-04-13T16:48:19.947Z,86036.41
2023-04-13T16:50:47.410Z,86036.41
2023-04-13T16:53:15.058Z,86038.25
2023-04-13T16:55:42.470Z,86033.00
2023-04-13T16:58:10.107Z,86036.38
2023-04-13T17:00:37.543Z,86034.13
2023-04-13T17:03:05.126Z,86040.06
2023-04-13T17:05:32.561Z,86041.22
2023-04-13T17:08:00.184Z,86036.38
2023-04-13T17:10:27.735Z,86036.75
2023-04-13T17:12:55.522Z,86036.03
2023-04-13T17:15:23.499Z,86038.97
2023-04-13T17:17:50.689Z,86045.28
2023-04-13T17:20:18.755Z,86057.97
2023-04-13T17:22:47.335Z,86053.16
2023-04-13T17:25:15.164Z,86046.44
2023-04-13T17:27:42.426Z,86040.50
2023-04-13T17:30:10.597Z,86036.78
2023-04-13T17:32:38.554Z,86031.53
2023-04-13T17:35:06.855Z,86018.50
2023-04-13T17:37:34.578Z,86027.41
2023-04-13T17:40:02.034Z,86026.25
2023-04-13T17:42:29.238Z,86019.94
2023-04-13T17:44:56.642Z,86023.69
2023-04-13T17:47:24.633Z,86017.66
2023-04-13T17:49:51.973Z,86016.56
2023-04-13T17:52:19.905Z,86031.13
2023-04-13T17:54:50.469Z,86035.97
2023-04-13T17:57:18.001Z,86031.13
2023-04-13T17:59:45.267Z,86039.69
2023-04-13T18:02:12.920Z,86052.34
2023-04-13T18:04:40.736Z,86050.50
2023-04-13T18:07:08.078Z,86048.22
2023-04-13T18:09:35.744Z,86053.81
2023-04-13T18:12:05.417Z,86057.19
2023-04-13T18:14:33.040Z,86064.63
2023-04-13T18:17:03.408Z,86062.78
2023-04-13T18:19:34.066Z,86064.25
2023-04-13T18:22:01.680Z,86069.47
2023-04-13T18:24:29.190Z,86077.28
2023-04-13T18:26:56.370Z,86084.34
2023-04-13T18:29:23.634Z,86088.47
2023-04-13T18:31:51.079Z,86082.13
2023-04-13T18:34:18.348Z,86086.56
2023-04-13T18:36:46.178Z,86083.63
2023-04-13T18:39:13.328Z,86075.44
2023-04-13T18:41:42.259Z,86077.66
2023-04-13T18:44:09.867Z,86081.78
2023-04-13T18:46:37.111Z,86080.69
2023-04-13T18:49:04.906Z,86084.00
2023-04-13T18:51:32.770Z,86077.69
2023-04-13T18:54:00.371Z,86077.66
2023-04-13T18:56:28.392Z,86068.72
2023-04-13T18:58:55.807Z,86075.09
2023-04-13T19:01:23.431Z,86078.44
2023-04-13T19:03:51.001Z,86069.50
2023-04-13T19:06:19.736Z,86066.47
2023-04-13T19:08:47.129Z,86057.50
2023-04-13T19:11:14.959Z,86059.69
2023-04-13T19:13:42.527Z,86063.44
2023-04-13T19:16:11.785Z,86061.53
2023-04-13T19:18:39.137Z,86065.19
2023-04-13T19:21:06.400Z,86067.59
2023-04-13T19:23:34.000Z,86068.69
2023-04-13T19:26:01.462Z,86067.97
2023-04-13T19:28:28.922Z,86077.97
2023-04-13T19:30:56.479Z,86085.84
2023-04-13T19:33:24.157Z,86086.28
2023-04-13T19:35:52.257Z,86094.53
2023-04-13T19:38:19.997Z,86090.78
2023-04-13T19:40:47.421Z,86100.06
2023-04-13T19:43:14.866Z,86099.38
2023-04-13T19:45:42.747Z,86100.13
2023-04-13T19:48:10.229Z,86086.31
2023-04-13T19:50:37.376Z,86096.78
2023-04-13T19:53:05.397Z,86104.63
2023-04-13T19:55:32.718Z,86105.03
2023-04-13T19:58:00.576Z,86099.81
2023-04-13T20:00:27.800Z,86093.50
2023-04-13T20:02:55.618Z,86094.28
2023-04-13T20:05:23.253Z,86093.91
2023-04-13T20:07:50.949Z,86090.53
2023-04-13T20:10:18.114Z,86080.81
2023-04-13T20:12:46.106Z,86085.69
2023-04-13T20:15:13.664Z,86073.38
2023-04-13T20:17:41.611Z,86071.91
2023-04-13T20:20:09.574Z,86074.47
2023-04-13T20:22:37.255Z,86071.91
2023-04-13T20:25:06.061Z,86063.66
2023-04-13T20:27:33.998Z,86062.94
2023-04-13T20:30:01.295Z,86058.50
2023-04-13T20:32:28.552Z,86049.53
2023-04-13T20:34:56.449Z,86058.00
2023-04-13T20:37:24.166Z,86053.13
2023-04-13T20:39:51.502Z,86050.97
2023-04-13T20:42:20.535Z,86055.75
2023-04-13T20:44:47.942Z,86042.75
2023-04-13T20:47:16.527Z,86039.78
2023-04-13T20:49:43.793Z,86045.31
2023-04-13T20:52:11.247Z,86042.78
2023-04-13T20:54:39.107Z,86039.84
2023-04-13T20:57:06.572Z,86033.53
2023-04-13T20:59:33.992Z,86032.78
2023-04-13T21:02:01.479Z,86030.94
2023-04-13T21:04:29.230Z,86035.75
2023-04-13T21:06:56.661Z,86030.50
2023-04-13T21:09:24.037Z,86026.81
2023-04-13T21:11:51.639Z,86032.34
2023-04-13T21:14:19.373Z,86022.31
2023-04-13T21:16:47.206Z,86017.47
2023-04-13T21:19:14.832Z,86019.22
2023-04-13T21:21:42.041Z,86026.31
2023-04-13T21:24:10.095Z,86023.72
2023-04-13T21:26:37.591Z,86019.88
2023-04-13T21:29:05.001Z,86023.47
2023-04-13T21:31:32.578Z,86021.53
2023-04-13T21:34:00.400Z,86021.44
2023-04-13T21:38:58.585Z,86017.38
2023-04-13T21:41:26.426Z,86022.16
2023-04-13T21:43:53.857Z,86017.97
2023-04-13T21:46:21.421Z,86010.75
2023-04-13T21:48:49.154Z,86010.47
2023-04-13T21:51:16.499Z,86008.16
2023-04-13T21:53:43.879Z,86008.25
2023-04-13T21:56:11.175Z,86011.22
2023-04-13T21:58:46.217Z,86017.13
2023-04-13T22:01:14.821Z,86010.06
2023-04-13T22:03:46.654Z,86010.38
2023-04-13T22:06:14.756Z,86003.81
2023-04-13T22:08:42.056Z,85998.59
2023-04-13T22:11:09.592Z,85990.16
2023-04-13T22:13:36.955Z,85996.88
2023-04-13T22:16:04.721Z,85993.47
2023-04-13T22:18:32.054Z,86009.84
2023-04-13T22:21:00.045Z,85999.09
2023-04-13T22:23:27.739Z,86002.81
2023-04-13T22:25:56.844Z,85999.06
2023-04-13T22:28:25.473Z,85992.66
2023-04-13T22:30:53.188Z,85988.72
2023-04-13T22:33:21.224Z,85996.16
2023-04-13T22:35:48.563Z,85996.47
2023-04-13T22:38:19.247Z,85995.84
2023-04-13T22:40:46.507Z,85992.88
2023-04-13T22:43:13.730Z,85991.09
2023-04-13T22:45:40.914Z,85985.88
2023-04-13T22:48:08.186Z,85993.69
2023-04-13T22:50:37.590Z,85993.69
2023-04-13T22:53:05.050Z,85994.09
2023-04-13T22:55:32.304Z,85991.19
2023-04-13T22:57:59.577Z,85993.41
2023-04-13T23:00:26.759Z,86004.59
2023-04-13T23:02:54.112Z,86002.44
2023-04-13T23:05:21.919Z,85992.41
2023-04-13T23:07:50.292Z,85983.88
2023-04-13T23:10:18.025Z,85988.00
2023-04-13T23:12:46.514Z,85996.94
2023-04-13T23:15:14.611Z,85994.03
2023-04-13T23:17:41.945Z,85994.38
2023-04-13T23:20:09.628Z,85990.66
2023-04-13T23:22:37.710Z,85994.03
2023-04-13T23:25:06.023Z,85991.44
2023-04-13T23:27:33.547Z,85996.63
2023-04-13T23:30:00.941Z,85988.81
2023-04-13T23:32:28.157Z,85984.72
2023-04-13T23:34:55.426Z,85988.13
2023-04-13T23:37:22.991Z,85994.03
2023-04-13T23:39:50.200Z,85990.69
2023-04-13T23:42:20.566Z,85988.19
2023-04-13T23:44:48.325Z,85988.59
2023-04-13T23:47:15.813Z,85983.06
2023-04-13T23:49:43.237Z,85983.38
2023-04-13T23:52:10.545Z,85982.16
2023-04-13T23:54:38.009Z,85983.28
2023-04-13T23:57:05.267Z,85981.75
2023-04-13T23:59:32.947Z,85977.13
